sensor_id;sensor_type;location;lat;lon;timestamp;P1;durP1;ratioP1;P2;durP2;ratioP2
12774;SDS011;6451;42.630;23.382;2023-02-28T00:00:10;28.03;;;18.60;;
12774;SDS011;6451;42.630;23.382;2023-02-28T00:02:39;25.53;;;18.43;;
12774;SDS011;6451;42.630;23.382;2023-02-28T00:05:08;25.30;;;18.87;;
12774;SDS011;6451;42.630;23.382;2023-02-28T00:07:36;29.37;;;19.20;;
12774;SDS011;6451;42.630;23.382;2023-02-28T00:10:04;24.17;;;17.90;;
12774;SDS011;6451;42.630;23.382;2023-02-28T00:12:34;28.00;;;18.47;;
12774;SDS011;6451;42.630;23.382;2023-02-28T00:15:01;27.17;;;18.13;;
12774;SDS011;6451;42.630;23.382;2023-02-28T00:17:28;24.90;;;17.47;;
12774;SDS011;6451;42.630;23.382;2023-02-28T00:19:55;27.60;;;17.50;;
12774;SDS011;6451;42.630;23.382;2023-02-28T00:22:27;23.87;;;17.27;;
12774;SDS011;6451;42.630;23.382;2023-02-28T00:24:54;24.23;;;16.80;;
12774;SDS011;6451;42.630;23.382;2023-02-28T00:27:21;22.80;;;16.73;;
12774;SDS011;6451;42.630;23.382;2023-02-28T00:29:49;23.53;;;17.27;;
12774;SDS011;6451;42.630;23.382;2023-02-28T00:32:18;26.23;;;17.30;;
12774;SDS011;6451;42.630;23.382;2023-02-28T00:34:45;23.93;;;17.53;;
12774;SDS011;6451;42.630;23.382;2023-02-28T00:37:12;23.90;;;17.87;;
12774;SDS011;6451;42.630;23.382;2023-02-28T00:39:39;25.87;;;18.90;;
12774;SDS011;6451;42.630;23.382;2023-02-28T00:42:08;22.23;;;16.80;;
12774;SDS011;6451;42.630;23.382;2023-02-28T00:44:35;22.00;;;15.70;;
12774;SDS011;6451;42.630;23.382;2023-02-28T00:47:03;25.80;;;18.07;;
12774;SDS011;6451;42.630;23.382;2023-02-28T00:49:30;27.03;;;17.87;;
12774;SDS011;6451;42.630;23.382;2023-02-28T00:51:58;24.07;;;18.20;;
12774;SDS011;6451;42.630;23.382;2023-02-28T00:54:26;28.67;;;20.17;;
12774;SDS011;6451;42.630;23.382;2023-02-28T00:56:53;33.60;;;20.50;;
12774;SDS011;6451;42.630;23.382;2023-02-28T00:59:19;31.00;;;20.80;;
12774;SDS011;6451;42.630;23.382;2023-02-28T01:01:46;29.03;;;21.53;;
12774;SDS011;6451;42.630;23.382;2023-02-28T01:04:15;33.07;;;20.47;;
12774;SDS011;6451;42.630;23.382;2023-02-28T01:06:42;30.47;;;21.07;;
12774;SDS011;6451;42.630;23.382;2023-02-28T01:09:09;30.27;;;21.60;;
12774;SDS011;6451;42.630;23.382;2023-02-28T01:11:39;28.93;;;20.53;;
12774;SDS011;6451;42.630;23.382;2023-02-28T01:14:09;28.07;;;21.40;;
12774;SDS011;6451;42.630;23.382;2023-02-28T01:16:40;27.67;;;20.83;;
12774;SDS011;6451;42.630;23.382;2023-02-28T01:19:07;30.03;;;20.83;;
12774;SDS011;6451;42.630;23.382;2023-02-28T01:21:36;31.53;;;20.90;;
12774;SDS011;6451;42.630;23.382;2023-02-28T01:24:03;29.90;;;21.83;;
12774;SDS011;6451;42.630;23.382;2023-02-28T01:26:32;31.73;;;22.07;;
12774;SDS011;6451;42.630;23.382;2023-02-28T01:28:59;26.77;;;20.37;;
12774;SDS011;6451;42.630;23.382;2023-02-28T01:31:26;29.00;;;20.53;;
12774;SDS011;6451;42.630;23.382;2023-02-28T01:33:53;28.93;;;20.67;;
12774;SDS011;6451;42.630;23.382;2023-02-28T01:36:20;30.70;;;19.87;;
12774;SDS011;6451;42.630;23.382;2023-02-28T01:38:50;25.83;;;20.00;;
12774;SDS011;6451;42.630;23.382;2023-02-28T01:41:18;28.60;;;20.53;;
12774;SDS011;6451;42.630;23.382;2023-02-28T01:43:58;28.13;;;20.00;;
12774;SDS011;6451;42.630;23.382;2023-02-28T01:46:28;28.37;;;19.70;;
12774;SDS011;6451;42.630;23.382;2023-02-28T01:48:58;33.40;;;21.20;;
12774;SDS011;6451;42.630;23.382;2023-02-28T01:51:29;31.10;;;20.80;;
12774;SDS011;6451;42.630;23.382;2023-02-28T01:54:02;30.70;;;21.20;;
12774;SDS011;6451;42.630;23.382;2023-02-28T01:56:38;33.90;;;22.50;;
12774;SDS011;6451;42.630;23.382;2023-02-28T01:59:11;32.20;;;22.10;;
12774;SDS011;6451;42.630;23.382;2023-02-28T02:01:40;32.10;;;21.67;;
12774;SDS011;6451;42.630;23.382;2023-02-28T02:04:08;32.63;;;21.20;;
12774;SDS011;6451;42.630;23.382;2023-02-28T02:06:37;33.83;;;22.23;;
12774;SDS011;6451;42.630;23.382;2023-02-28T02:09:08;35.10;;;21.43;;
12774;SDS011;6451;42.630;23.382;2023-02-28T02:11:36;34.30;;;22.53;;
12774;SDS011;6451;42.630;23.382;2023-02-28T02:14:10;34.33;;;24.07;;
12774;SDS011;6451;42.630;23.382;2023-02-28T02:17:04;34.57;;;23.07;;
12774;SDS011;6451;42.630;23.382;2023-02-28T02:22:52;38.10;;;22.80;;
12774;SDS011;6451;42.630;23.382;2023-02-28T02:25:38;35.77;;;22.93;;
12774;SDS011;6451;42.630;23.382;2023-02-28T02:28:20;37.07;;;22.93;;
12774;SDS011;6451;42.630;23.382;2023-02-28T02:31:06;32.27;;;22.17;;
12774;SDS011;6451;42.630;23.382;2023-02-28T02:37:08;30.97;;;22.20;;
12774;SDS011;6451;42.630;23.382;2023-02-28T02:39:44;34.63;;;21.07;;
12774;SDS011;6451;42.630;23.382;2023-02-28T02:42:20;34.77;;;22.57;;
12774;SDS011;6451;42.630;23.382;2023-02-28T02:44:52;31.07;;;22.00;;
12774;SDS011;6451;42.630;23.382;2023-02-28T02:47:27;33.00;;;22.17;;
12774;SDS011;6451;42.630;23.382;2023-02-28T02:49:59;36.53;;;23.00;;
12774;SDS011;6451;42.630;23.382;2023-02-28T02:52:34;37.53;;;22.97;;
12774;SDS011;6451;42.630;23.382;2023-02-28T02:55:06;33.37;;;22.13;;
12774;SDS011;6451;42.630;23.382;2023-02-28T02:57:38;33.50;;;22.00;;
12774;SDS011;6451;42.630;23.382;2023-02-28T03:00:11;34.10;;;22.57;;
12774;SDS011;6451;42.630;23.382;2023-02-28T03:02:40;33.07;;;22.07;;
12774;SDS011;6451;42.630;23.382;2023-02-28T03:05:12;33.60;;;22.13;;
12774;SDS011;6451;42.630;23.382;2023-02-28T03:07:43;37.53;;;23.87;;
12774;SDS011;6451;42.630;23.382;2023-02-28T03:10:30;35.43;;;23.97;;
12774;SDS011;6451;42.630;23.382;2023-02-28T03:13:11;36.37;;;23.93;;
12774;SDS011;6451;42.630;23.382;2023-02-28T03:15:58;44.07;;;23.47;;
12774;SDS011;6451;42.630;23.382;2023-02-28T03:18:43;41.00;;;23.57;;
12774;SDS011;6451;42.630;23.382;2023-02-28T03:21:22;34.00;;;23.20;;
12774;SDS011;6451;42.630;23.382;2023-02-28T03:23:56;37.87;;;24.30;;
12774;SDS011;6451;42.630;23.382;2023-02-28T03:26:30;40.77;;;25.40;;
12774;SDS011;6451;42.630;23.382;2023-02-28T03:29:02;41.97;;;25.10;;
12774;SDS011;6451;42.630;23.382;2023-02-28T03:31:33;40.80;;;25.30;;
12774;SDS011;6451;42.630;23.382;2023-02-28T03:34:05;39.77;;;25.67;;
12774;SDS011;6451;42.630;23.382;2023-02-28T03:36:41;59.23;;;25.97;;
12774;SDS011;6451;42.630;23.382;2023-02-28T03:39:12;44.00;;;25.50;;
12774;SDS011;6451;42.630;23.382;2023-02-28T03:41:42;49.37;;;26.43;;
12774;SDS011;6451;42.630;23.382;2023-02-28T03:44:16;42.37;;;26.27;;
12774;SDS011;6451;42.630;23.382;2023-02-28T03:46:47;45.33;;;27.13;;
12774;SDS011;6451;42.630;23.382;2023-02-28T03:49:20;41.13;;;26.47;;
12774;SDS011;6451;42.630;23.382;2023-02-28T03:51:54;46.10;;;27.57;;
12774;SDS011;6451;42.630;23.382;2023-02-28T03:54:27;47.90;;;27.70;;
12774;SDS011;6451;42.630;23.382;2023-02-28T03:56:59;48.20;;;27.23;;
12774;SDS011;6451;42.630;23.382;2023-02-28T03:59:30;45.30;;;26.63;;
12774;SDS011;6451;42.630;23.382;2023-02-28T04:02:01;47.23;;;27.50;;
12774;SDS011;6451;42.630;23.382;2023-02-28T04:04:28;47.07;;;26.63;;
12774;SDS011;6451;42.630;23.382;2023-02-28T04:07:02;41.87;;;26.97;;
12774;SDS011;6451;42.630;23.382;2023-02-28T04:09:31;48.93;;;26.93;;
12774;SDS011;6451;42.630;23.382;2023-02-28T04:11:58;51.03;;;27.90;;
12774;SDS011;6451;42.630;23.382;2023-02-28T04:14:25;47.97;;;27.23;;
12774;SDS011;6451;42.630;23.382;2023-02-28T04:16:52;91.80;;;28.20;;
12774;SDS011;6451;42.630;23.382;2023-02-28T04:19:19;92.17;;;26.87;;
12774;SDS011;6451;42.630;23.382;2023-02-28T04:21:48;53.80;;;27.33;;
12774;SDS011;6451;42.630;23.382;2023-02-28T04:24:19;75.73;;;28.00;;
12774;SDS011;6451;42.630;23.382;2023-02-28T04:26:48;105.00;;;30.00;;
12774;SDS011;6451;42.630;23.382;2023-02-28T04:29:18;68.93;;;31.40;;
12774;SDS011;6451;42.630;23.382;2023-02-28T04:31:46;72.03;;;28.40;;
12774;SDS011;6451;42.630;23.382;2023-02-28T04:34:14;69.33;;;28.90;;
12774;SDS011;6451;42.630;23.382;2023-02-28T04:36:41;135.30;;;27.97;;
12774;SDS011;6451;42.630;23.382;2023-02-28T04:39:08;88.63;;;27.80;;
12774;SDS011;6451;42.630;23.382;2023-02-28T04:41:37;48.43;;;26.80;;
12774;SDS011;6451;42.630;23.382;2023-02-28T04:44:04;54.37;;;24.53;;
12774;SDS011;6451;42.630;23.382;2023-02-28T04:46:31;48.40;;;25.43;;
12774;SDS011;6451;42.630;23.382;2023-02-28T04:48:59;71.50;;;25.23;;
12774;SDS011;6451;42.630;23.382;2023-02-28T04:51:26;67.30;;;24.70;;
12774;SDS011;6451;42.630;23.382;2023-02-28T04:53:53;77.87;;;25.63;;
12774;SDS011;6451;42.630;23.382;2023-02-28T04:56:20;97.40;;;25.40;;
12774;SDS011;6451;42.630;23.382;2023-02-28T04:58:49;84.37;;;24.07;;
12774;SDS011;6451;42.630;23.382;2023-02-28T05:01:22;129.40;;;26.27;;
12774;SDS011;6451;42.630;23.382;2023-02-28T05:03:51;119.23;;;26.40;;
12774;SDS011;6451;42.630;23.382;2023-02-28T05:06:19;104.57;;;26.57;;
12774;SDS011;6451;42.630;23.382;2023-02-28T05:08:48;87.83;;;25.80;;
12774;SDS011;6451;42.630;23.382;2023-02-28T05:11:16;116.70;;;25.70;;
12774;SDS011;6451;42.630;23.382;2023-02-28T05:13:44;116.40;;;26.73;;
12774;SDS011;6451;42.630;23.382;2023-02-28T05:16:13;96.17;;;24.97;;
12774;SDS011;6451;42.630;23.382;2023-02-28T05:18:41;159.00;;;28.23;;
12774;SDS011;6451;42.630;23.382;2023-02-28T05:21:15;87.00;;;26.43;;
12774;SDS011;6451;42.630;23.382;2023-02-28T05:23:50;56.40;;;25.63;;
12774;SDS011;6451;42.630;23.382;2023-02-28T05:26:17;49.63;;;24.43;;
12774;SDS011;6451;42.630;23.382;2023-02-28T05:28:44;61.23;;;25.47;;
12774;SDS011;6451;42.630;23.382;2023-02-28T05:31:11;122.60;;;26.10;;
12774;SDS011;6451;42.630;23.382;2023-02-28T05:33:40;83.57;;;25.80;;
12774;SDS011;6451;42.630;23.382;2023-02-28T05:36:07;55.20;;;26.10;;
12774;SDS011;6451;42.630;23.382;2023-02-28T05:38:35;48.97;;;26.03;;
12774;SDS011;6451;42.630;23.382;2023-02-28T05:41:04;65.20;;;25.63;;
12774;SDS011;6451;42.630;23.382;2023-02-28T05:43:32;80.37;;;26.10;;
12774;SDS011;6451;42.630;23.382;2023-02-28T05:45:59;41.13;;;24.33;;
12774;SDS011;6451;42.630;23.382;2023-02-28T05:48:28;43.27;;;26.07;;
12774;SDS011;6451;42.630;23.382;2023-02-28T05:50:56;42.43;;;26.03;;
12774;SDS011;6451;42.630;23.382;2023-02-28T05:53:23;38.47;;;25.77;;
12774;SDS011;6451;42.630;23.382;2023-02-28T05:55:51;44.33;;;26.33;;
12774;SDS011;6451;42.630;23.382;2023-02-28T05:58:18;37.00;;;23.60;;
12774;SDS011;6451;42.630;23.382;2023-02-28T06:00:46;35.37;;;25.00;;
12774;SDS011;6451;42.630;23.382;2023-02-28T06:03:13;32.73;;;23.40;;
12774;SDS011;6451;42.630;23.382;2023-02-28T06:05:41;39.50;;;24.60;;
12774;SDS011;6451;42.630;23.382;2023-02-28T06:08:10;35.43;;;23.90;;
12774;SDS011;6451;42.630;23.382;2023-02-28T06:10:37;33.63;;;23.17;;
12774;SDS011;6451;42.630;23.382;2023-02-28T06:13:06;35.90;;;23.77;;
12774;SDS011;6451;42.630;23.382;2023-02-28T06:15:33;33.30;;;22.47;;
12774;SDS011;6451;42.630;23.382;2023-02-28T06:18:00;35.30;;;23.73;;
12774;SDS011;6451;42.630;23.382;2023-02-28T06:20:28;36.57;;;23.43;;
12774;SDS011;6451;42.630;23.382;2023-02-28T06:22:55;34.33;;;23.57;;
12774;SDS011;6451;42.630;23.382;2023-02-28T06:25:26;33.50;;;23.30;;
12774;SDS011;6451;42.630;23.382;2023-02-28T06:27:54;34.03;;;23.07;;
12774;SDS011;6451;42.630;23.382;2023-02-28T06:30:22;38.40;;;24.60;;
12774;SDS011;6451;42.630;23.382;2023-02-28T06:32:52;36.07;;;23.73;;
12774;SDS011;6451;42.630;23.382;2023-02-28T06:35:19;37.50;;;25.03;;
12774;SDS011;6451;42.630;23.382;2023-02-28T06:37:46;39.27;;;25.10;;
12774;SDS011;6451;42.630;23.382;2023-02-28T06:40:13;34.37;;;23.90;;
12774;SDS011;6451;42.630;23.382;2023-02-28T06:42:42;32.30;;;22.83;;
12774;SDS011;6451;42.630;23.382;2023-02-28T06:45:09;31.87;;;23.00;;
12774;SDS011;6451;42.630;23.382;2023-02-28T06:47:37;29.70;;;21.93;;
12774;SDS011;6451;42.630;23.382;2023-02-28T06:50:05;31.57;;;22.67;;
12774;SDS011;6451;42.630;23.382;2023-02-28T06:52:35;31.83;;;23.20;;
12774;SDS011;6451;42.630;23.382;2023-02-28T06:55:02;33.67;;;23.73;;
12774;SDS011;6451;42.630;23.382;2023-02-28T06:57:30;34.97;;;23.10;;
12774;SDS011;6451;42.630;23.382;2023-02-28T06:59:59;29.90;;;22.07;;
12774;SDS011;6451;42.630;23.382;2023-02-28T07:02:27;34.90;;;22.57;;
12774;SDS011;6451;42.630;23.382;2023-02-28T07:04:54;31.00;;;21.63;;
12774;SDS011;6451;42.630;23.382;2023-02-28T07:07:21;29.30;;;21.47;;
12774;SDS011;6451;42.630;23.382;2023-02-28T07:09:48;29.97;;;21.87;;
12774;SDS011;6451;42.630;23.382;2023-02-28T07:12:14;29.23;;;21.10;;
12774;SDS011;6451;42.630;23.382;2023-02-28T07:14:42;30.70;;;21.03;;
12774;SDS011;6451;42.630;23.382;2023-02-28T07:17:10;29.63;;;21.23;;
12774;SDS011;6451;42.630;23.382;2023-02-28T07:19:38;27.67;;;19.53;;
12774;SDS011;6451;42.630;23.382;2023-02-28T07:22:05;28.27;;;19.80;;
12774;SDS011;6451;42.630;23.382;2023-02-28T07:24:32;29.53;;;20.43;;
12774;SDS011;6451;42.630;23.382;2023-02-28T07:26:59;29.63;;;18.93;;
12774;SDS011;6451;42.630;23.382;2023-02-28T07:29:27;32.37;;;21.20;;
12774;SDS011;6451;42.630;23.382;2023-02-28T07:31:54;31.73;;;19.93;;
12774;SDS011;6451;42.630;23.382;2023-02-28T07:34:22;32.87;;;20.00;;
12774;SDS011;6451;42.630;23.382;2023-02-28T07:36:52;29.13;;;19.70;;
12774;SDS011;6451;42.630;23.382;2023-02-28T07:39:19;31.20;;;21.40;;
12774;SDS011;6451;42.630;23.382;2023-02-28T07:41:47;38.83;;;21.53;;
12774;SDS011;6451;42.630;23.382;2023-02-28T07:44:14;34.07;;;21.13;;
12774;SDS011;6451;42.630;23.382;2023-02-28T07:46:41;31.47;;;20.83;;
12774;SDS011;6451;42.630;23.382;2023-02-28T07:49:08;30.67;;;22.17;;
12774;SDS011;6451;42.630;23.382;2023-02-28T07:51:36;31.10;;;21.80;;
12774;SDS011;6451;42.630;23.382;2023-02-28T07:54:04;29.13;;;22.00;;
12774;SDS011;6451;42.630;23.382;2023-02-28T07:56:31;33.00;;;20.47;;
12774;SDS011;6451;42.630;23.382;2023-02-28T07:58:58;29.70;;;20.50;;
12774;SDS011;6451;42.630;23.382;2023-02-28T08:01:26;28.17;;;20.53;;
12774;SDS011;6451;42.630;23.382;2023-02-28T08:03:53;30.73;;;19.70;;
12774;SDS011;6451;42.630;23.382;2023-02-28T08:06:22;29.73;;;20.23;;
12774;SDS011;6451;42.630;23.382;2023-02-28T08:08:52;29.60;;;21.07;;
12774;SDS011;6451;42.630;23.382;2023-02-28T08:11:21;29.73;;;20.27;;
12774;SDS011;6451;42.630;23.382;2023-02-28T08:13:48;28.37;;;20.67;;
12774;SDS011;6451;42.630;23.382;2023-02-28T08:16:15;29.57;;;20.20;;
12774;SDS011;6451;42.630;23.382;2023-02-28T08:18:47;31.07;;;20.60;;
12774;SDS011;6451;42.630;23.382;2023-02-28T08:21:14;32.63;;;20.93;;
12774;SDS011;6451;42.630;23.382;2023-02-28T08:23:41;30.60;;;20.27;;
12774;SDS011;6451;42.630;23.382;2023-02-28T08:26:09;28.70;;;19.83;;
12774;SDS011;6451;42.630;23.382;2023-02-28T08:28:36;31.97;;;19.27;;
12774;SDS011;6451;42.630;23.382;2023-02-28T08:31:06;29.27;;;20.20;;
12774;SDS011;6451;42.630;23.382;2023-02-28T08:33:34;29.40;;;19.83;;
12774;SDS011;6451;42.630;23.382;2023-02-28T08:36:01;31.73;;;18.80;;
12774;SDS011;6451;42.630;23.382;2023-02-28T08:38:28;31.30;;;17.97;;
12774;SDS011;6451;42.630;23.382;2023-02-28T08:40:56;27.77;;;17.80;;
12774;SDS011;6451;42.630;23.382;2023-02-28T08:43:26;26.37;;;16.90;;
12774;SDS011;6451;42.630;23.382;2023-02-28T08:45:55;28.10;;;17.40;;
12774;SDS011;6451;42.630;23.382;2023-02-28T08:48:22;22.83;;;16.47;;
12774;SDS011;6451;42.630;23.382;2023-02-28T08:50:56;24.93;;;15.50;;
12774;SDS011;6451;42.630;23.382;2023-02-28T08:53:24;24.60;;;15.10;;
12774;SDS011;6451;42.630;23.382;2023-02-28T08:55:57;24.27;;;15.97;;
12774;SDS011;6451;42.630;23.382;2023-02-28T08:58:26;23.77;;;14.43;;
12774;SDS011;6451;42.630;23.382;2023-02-28T09:00:53;18.27;;;12.83;;
12774;SDS011;6451;42.630;23.382;2023-02-28T09:03:20;27.23;;;12.03;;
12774;SDS011;6451;42.630;23.382;2023-02-28T09:05:54;22.53;;;12.73;;
12774;SDS011;6451;42.630;23.382;2023-02-28T09:08:23;19.90;;;10.33;;
12774;SDS011;6451;42.630;23.382;2023-02-28T09:10:50;19.50;;;10.57;;
12774;SDS011;6451;42.630;23.382;2023-02-28T09:13:17;19.47;;;10.20;;
12774;SDS011;6451;42.630;23.382;2023-02-28T09:15:46;16.07;;;9.47;;
12774;SDS011;6451;42.630;23.382;2023-02-28T09:18:13;14.37;;;9.40;;
12774;SDS011;6451;42.630;23.382;2023-02-28T09:20:41;22.63;;;8.90;;
12774;SDS011;6451;42.630;23.382;2023-02-28T09:26:03;17.97;;;9.97;;
12774;SDS011;6451;42.630;23.382;2023-02-28T09:28:31;17.53;;;9.43;;
12774;SDS011;6451;42.630;23.382;2023-02-28T09:30:59;18.50;;;9.33;;
12774;SDS011;6451;42.630;23.382;2023-02-28T09:33:26;17.93;;;10.07;;
12774;SDS011;6451;42.630;23.382;2023-02-28T09:35:57;17.97;;;9.20;;
12774;SDS011;6451;42.630;23.382;2023-02-28T09:38:27;24.20;;;16.17;;
12774;SDS011;6451;42.630;23.382;2023-02-28T09:40:55;21.13;;;16.13;;
12774;SDS011;6451;42.630;23.382;2023-02-28T09:43:25;22.10;;;11.93;;
12774;SDS011;6451;42.630;23.382;2023-02-28T09:48:33;15.97;;;8.70;;
12774;SDS011;6451;42.630;23.382;2023-02-28T09:51:05;17.63;;;9.13;;
12774;SDS011;6451;42.630;23.382;2023-02-28T09:53:42;16.83;;;9.53;;
12774;SDS011;6451;42.630;23.382;2023-02-28T09:56:09;17.03;;;9.50;;
12774;SDS011;6451;42.630;23.382;2023-02-28T09:58:40;16.73;;;9.50;;
12774;SDS011;6451;42.630;23.382;2023-02-28T10:01:18;19.90;;;9.10;;
12774;SDS011;6451;42.630;23.382;2023-02-28T10:03:52;16.87;;;9.07;;
12774;SDS011;6451;42.630;23.382;2023-02-28T10:06:25;19.70;;;9.60;;
12774;SDS011;6451;42.630;23.382;2023-02-28T10:08:58;13.77;;;9.20;;
12774;SDS011;6451;42.630;23.382;2023-02-28T10:11:28;22.00;;;9.90;;
12774;SDS011;6451;42.630;23.382;2023-02-28T10:13:59;17.20;;;9.73;;
12774;SDS011;6451;42.630;23.382;2023-02-28T10:16:34;27.20;;;12.57;;
12774;SDS011;6451;42.630;23.382;2023-02-28T10:19:04;22.87;;;13.10;;
12774;SDS011;6451;42.630;23.382;2023-02-28T10:21:38;23.60;;;14.03;;
12774;SDS011;6451;42.630;23.382;2023-02-28T10:24:13;21.17;;;13.87;;
12774;SDS011;6451;42.630;23.382;2023-02-28T10:26:47;20.43;;;13.47;;
12774;SDS011;6451;42.630;23.382;2023-02-28T10:29:14;21.70;;;13.07;;
12774;SDS011;6451;42.630;23.382;2023-02-28T10:31:43;17.57;;;10.23;;
12774;SDS011;6451;42.630;23.382;2023-02-28T10:34:11;25.43;;;9.67;;
12774;SDS011;6451;42.630;23.382;2023-02-28T10:36:38;24.10;;;10.73;;
12774;SDS011;6451;42.630;23.382;2023-02-28T10:42:17;25.73;;;12.97;;
12774;SDS011;6451;42.630;23.382;2023-02-28T10:44:46;20.10;;;9.70;;
12774;SDS011;6451;42.630;23.382;2023-02-28T10:47:15;20.77;;;10.73;;
12774;SDS011;6451;42.630;23.382;2023-02-28T10:49:47;17.83;;;9.93;;
12774;SDS011;6451;42.630;23.382;2023-02-28T10:52:17;20.83;;;10.83;;
12774;SDS011;6451;42.630;23.382;2023-02-28T10:57:47;24.87;;;10.40;;
12774;SDS011;6451;42.630;23.382;2023-02-28T11:00:16;20.80;;;10.63;;
12774;SDS011;6451;42.630;23.382;2023-02-28T11:02:46;20.30;;;11.23;;
12774;SDS011;6451;42.630;23.382;2023-02-28T11:05:25;24.30;;;11.87;;
12774;SDS011;6451;42.630;23.382;2023-02-28T11:07:55;17.77;;;10.60;;
12774;SDS011;6451;42.630;23.382;2023-02-28T11:10:25;21.47;;;11.10;;
12774;SDS011;6451;42.630;23.382;2023-02-28T11:12:56;17.87;;;11.77;;
12774;SDS011;6451;42.630;23.382;2023-02-28T11:15:26;24.03;;;12.40;;
12774;SDS011;6451;42.630;23.382;2023-02-28T11:17:56;24.13;;;11.97;;
12774;SDS011;6451;42.630;23.382;2023-02-28T11:20:26;23.30;;;13.27;;
12774;SDS011;6451;42.630;23.382;2023-02-28T11:22:55;24.40;;;13.13;;
12774;SDS011;6451;42.630;23.382;2023-02-28T11:25:24;25.93;;;14.30;;
12774;SDS011;6451;42.630;23.382;2023-02-28T11:27:54;22.97;;;13.90;;
12774;SDS011;6451;42.630;23.382;2023-02-28T11:30:33;21.27;;;13.43;;
12774;SDS011;6451;42.630;23.382;2023-02-28T11:35:55;22.67;;;13.90;;
12774;SDS011;6451;42.630;23.382;2023-02-28T11:38:25;19.73;;;9.63;;
12774;SDS011;6451;42.630;23.382;2023-02-28T11:40:58;18.10;;;10.43;;
12774;SDS011;6451;42.630;23.382;2023-02-28T11:43:40;22.43;;;11.10;;
12774;SDS011;6451;42.630;23.382;2023-02-28T11:46:22;20.47;;;10.67;;
12774;SDS011;6451;42.630;23.382;2023-02-28T11:48:58;18.83;;;10.60;;
12774;SDS011;6451;42.630;23.382;2023-02-28T11:51:35;18.13;;;12.03;;
12774;SDS011;6451;42.630;23.382;2023-02-28T11:54:21;18.40;;;11.07;;
12774;SDS011;6451;42.630;23.382;2023-02-28T11:56:57;18.00;;;10.90;;
12774;SDS011;6451;42.630;23.382;2023-02-28T11:59:36;23.97;;;11.53;;
12774;SDS011;6451;42.630;23.382;2023-02-28T12:02:23;20.87;;;11.30;;
12774;SDS011;6451;42.630;23.382;2023-02-28T12:07:49;22.37;;;11.70;;
12774;SDS011;6451;42.630;23.382;2023-02-28T12:10:27;23.57;;;11.70;;
12774;SDS011;6451;42.630;23.382;2023-02-28T12:13:01;22.90;;;12.10;;
12774;SDS011;6451;42.630;23.382;2023-02-28T12:15:54;19.80;;;11.87;;
12774;SDS011;6451;42.630;23.382;2023-02-28T12:18:40;18.53;;;10.80;;
12774;SDS011;6451;42.630;23.382;2023-02-28T12:21:18;19.13;;;11.37;;
12774;SDS011;6451;42.630;23.382;2023-02-28T12:24:14;23.37;;;11.93;;
12774;SDS011;6451;42.630;23.382;2023-02-28T12:27:03;22.10;;;11.30;;
12774;SDS011;6451;42.630;23.382;2023-02-28T12:29:38;20.70;;;13.50;;
12774;SDS011;6451;42.630;23.382;2023-02-28T12:32:16;20.93;;;11.97;;
12774;SDS011;6451;42.630;23.382;2023-02-28T12:34:47;18.93;;;11.30;;
12774;SDS011;6451;42.630;23.382;2023-02-28T12:37:19;21.43;;;13.80;;
12774;SDS011;6451;42.630;23.382;2023-02-28T12:39:54;19.57;;;13.73;;
12774;SDS011;6451;42.630;23.382;2023-02-28T12:42:29;18.20;;;13.87;;
12774;SDS011;6451;42.630;23.382;2023-02-28T12:44:59;23.30;;;15.27;;
12774;SDS011;6451;42.630;23.382;2023-02-28T12:47:29;19.53;;;12.83;;
12774;SDS011;6451;42.630;23.382;2023-02-28T12:49:57;20.33;;;12.27;;
12774;SDS011;6451;42.630;23.382;2023-02-28T12:52:30;19.87;;;13.10;;
12774;SDS011;6451;42.630;23.382;2023-02-28T12:55:03;23.63;;;14.83;;
12774;SDS011;6451;42.630;23.382;2023-02-28T12:57:36;23.97;;;15.00;;
12774;SDS011;6451;42.630;23.382;2023-02-28T13:00:09;23.87;;;14.13;;
12774;SDS011;6451;42.630;23.382;2023-02-28T13:02:50;20.93;;;14.47;;
12774;SDS011;6451;42.630;23.382;2023-02-28T13:05:37;16.83;;;11.10;;
12774;SDS011;6451;42.630;23.382;2023-02-28T13:08:23;19.27;;;11.63;;
12774;SDS011;6451;42.630;23.382;2023-02-28T13:11:07;17.83;;;11.90;;
12774;SDS011;6451;42.630;23.382;2023-02-28T13:13:49;20.73;;;11.07;;
12774;SDS011;6451;42.630;23.382;2023-02-28T13:16:24;19.10;;;12.43;;
12774;SDS011;6451;42.630;23.382;2023-02-28T13:18:51;21.07;;;12.80;;
12774;SDS011;6451;42.630;23.382;2023-02-28T13:21:24;18.93;;;10.93;;
12774;SDS011;6451;42.630;23.382;2023-02-28T13:24:01;18.60;;;11.07;;
12774;SDS011;6451;42.630;23.382;2023-02-28T13:29:32;15.47;;;10.13;;
12774;SDS011;6451;42.630;23.382;2023-02-28T13:37:42;16.70;;;10.57;;
12774;SDS011;6451;42.630;23.382;2023-02-28T13:43:06;23.63;;;11.57;;
12774;SDS011;6451;42.630;23.382;2023-02-28T13:45:36;21.03;;;11.43;;
12774;SDS011;6451;42.630;23.382;2023-02-28T13:48:12;20.53;;;10.33;;
12774;SDS011;6451;42.630;23.382;2023-02-28T13:50:44;16.53;;;10.37;;
12774;SDS011;6451;42.630;23.382;2023-02-28T13:56:23;19.20;;;11.10;;
12774;SDS011;6451;42.630;23.382;2023-02-28T13:58:58;20.50;;;11.37;;
12774;SDS011;6451;42.630;23.382;2023-02-28T14:01:47;21.00;;;11.93;;
12774;SDS011;6451;42.630;23.382;2023-02-28T14:07:21;28.47;;;12.47;;
12774;SDS011;6451;42.630;23.382;2023-02-28T14:09:55;26.17;;;13.27;;
12774;SDS011;6451;42.630;23.382;2023-02-28T14:18:22;22.00;;;12.57;;
12774;SDS011;6451;42.630;23.382;2023-02-28T14:20:55;20.97;;;13.37;;
12774;SDS011;6451;42.630;23.382;2023-02-28T14:26:29;25.17;;;13.30;;
12774;SDS011;6451;42.630;23.382;2023-02-28T14:29:10;24.33;;;13.00;;
12774;SDS011;6451;42.630;23.382;2023-02-28T14:31:52;27.57;;;13.30;;
12774;SDS011;6451;42.630;23.382;2023-02-28T14:34:35;24.80;;;13.40;;
12774;SDS011;6451;42.630;23.382;2023-02-28T14:37:09;20.03;;;12.47;;
12774;SDS011;6451;42.630;23.382;2023-02-28T14:39:41;23.13;;;12.37;;
12774;SDS011;6451;42.630;23.382;2023-02-28T14:42:29;20.43;;;11.97;;
12774;SDS011;6451;42.630;23.382;2023-02-28T14:44:58;22.03;;;12.37;;
12774;SDS011;6451;42.630;23.382;2023-02-28T14:47:26;21.77;;;12.70;;
12774;SDS011;6451;42.630;23.382;2023-02-28T14:49:58;22.83;;;13.10;;
12774;SDS011;6451;42.630;23.382;2023-02-28T14:52:26;25.83;;;12.67;;
12774;SDS011;6451;42.630;23.382;2023-02-28T14:54:55;25.17;;;13.27;;
12774;SDS011;6451;42.630;23.382;2023-02-28T14:57:25;20.77;;;13.20;;
12774;SDS011;6451;42.630;23.382;2023-02-28T15:00:01;26.67;;;13.57;;
12774;SDS011;6451;42.630;23.382;2023-02-28T15:02:35;24.77;;;13.80;;
12774;SDS011;6451;42.630;23.382;2023-02-28T15:05:19;22.50;;;13.30;;
12774;SDS011;6451;42.630;23.382;2023-02-28T15:08:00;22.83;;;12.37;;
12774;SDS011;6451;42.630;23.382;2023-02-28T15:10:30;14.80;;;10.57;;
12774;SDS011;6451;42.630;23.382;2023-02-28T15:12:58;20.00;;;10.10;;
12774;SDS011;6451;42.630;23.382;2023-02-28T15:15:28;17.83;;;10.13;;
12774;SDS011;6451;42.630;23.382;2023-02-28T15:18:05;15.37;;;9.50;;
12774;SDS011;6451;42.630;23.382;2023-02-28T15:20:35;18.73;;;10.90;;
12774;SDS011;6451;42.630;23.382;2023-02-28T15:23:05;20.70;;;11.13;;
12774;SDS011;6451;42.630;23.382;2023-02-28T15:25:32;19.70;;;12.10;;
12774;SDS011;6451;42.630;23.382;2023-02-28T15:28:00;21.90;;;13.20;;
12774;SDS011;6451;42.630;23.382;2023-02-28T15:30:27;19.07;;;13.33;;
12774;SDS011;6451;42.630;23.382;2023-02-28T15:33:03;18.50;;;12.63;;